sensor_id;sensor_type;location;lat;lon;timestamp;P1;durP1;ratioP1;P2;durP2;ratioP2
3769;SDS011;1900;48.890;9.190;2023-05-07T00:00:45;6.07;;;3.30;;
3769;SDS011;1900;48.890;9.190;2023-05-07T00:03:10;5.40;;;3.30;;
3769;SDS011;1900;48.890;9.190;2023-05-07T00:05:38;5.20;;;3.47;;
3769;SDS011;1900;48.890;9.190;2023-05-07T00:08:04;5.53;;;3.17;;
3769;SDS011;1900;48.890;9.190;2023-05-07T00:10:30;6.43;;;3.47;;
3769;SDS011;1900;48.890;9.190;2023-05-07T00:12:55;6.13;;;3.27;;
3769;SDS011;1900;48.890;9.190;2023-05-07T00:15:21;6.30;;;3.50;;
3769;SDS011;1900;48.890;9.190;2023-05-07T00:17:47;4.00;;;3.60;;
3769;SDS011;1900;48.890;9.190;2023-05-07T00:20:12;5.87;;;3.40;;
3769;SDS011;1900;48.890;9.190;2023-05-07T00:22:38;5.53;;;4.10;;
3769;SDS011;1900;48.890;9.190;2023-05-07T00:25:04;4.70;;;3.40;;
3769;SDS011;1900;48.890;9.190;2023-05-07T00:27:30;4.37;;;3.60;;
3769;SDS011;1900;48.890;9.190;2023-05-07T00:29:56;6.43;;;3.77;;
3769;SDS011;1900;48.890;9.190;2023-05-07T00:32:22;5.43;;;3.87;;
3769;SDS011;1900;48.890;9.190;2023-05-07T00:34:47;10.30;;;3.90;;
3769;SDS011;1900;48.890;9.190;2023-05-07T00:37:13;4.63;;;3.47;;
3769;SDS011;1900;48.890;9.190;2023-05-07T00:39:39;9.10;;;3.37;;
3769;SDS011;1900;48.890;9.190;2023-05-07T00:42:05;5.07;;;3.27;;
3769;SDS011;1900;48.890;9.190;2023-05-07T00:44:33;4.40;;;3.80;;
3769;SDS011;1900;48.890;9.190;2023-05-07T00:46:58;4.07;;;3.20;;
3769;SDS011;1900;48.890;9.190;2023-05-07T00:49:29;6.60;;;3.93;;
3769;SDS011;1900;48.890;9.190;2023-05-07T00:52:08;8.30;;;3.50;;
3769;SDS011;1900;48.890;9.190;2023-05-07T00:54:38;8.70;;;3.97;;
3769;SDS011;1900;48.890;9.190;2023-05-07T00:57:05;4.60;;;3.50;;
3769;SDS011;1900;48.890;9.190;2023-05-07T00:59:31;3.80;;;3.17;;
3769;SDS011;1900;48.890;9.190;2023-05-07T01:01:58;3.90;;;2.93;;
3769;SDS011;1900;48.890;9.190;2023-05-07T01:04:24;9.80;;;3.60;;
3769;SDS011;1900;48.890;9.190;2023-05-07T01:06:51;3.80;;;3.07;;
3769;SDS011;1900;48.890;9.190;2023-05-07T01:09:19;7.70;;;3.73;;
3769;SDS011;1900;48.890;9.190;2023-05-07T01:11:46;5.10;;;3.20;;
3769;SDS011;1900;48.890;9.190;2023-05-07T01:14:12;10.90;;;3.60;;
3769;SDS011;1900;48.890;9.190;2023-05-07T01:16:38;3.87;;;3.40;;
3769;SDS011;1900;48.890;9.190;2023-05-07T01:19:05;5.20;;;3.67;;
3769;SDS011;1900;48.890;9.190;2023-05-07T01:21:33;6.57;;;3.63;;
3769;SDS011;1900;48.890;9.190;2023-05-07T01:24:03;6.20;;;4.13;;
3769;SDS011;1900;48.890;9.190;2023-05-07T01:26:32;4.50;;;3.27;;
3769;SDS011;1900;48.890;9.190;2023-05-07T01:28:58;6.47;;;3.57;;
3769;SDS011;1900;48.890;9.190;2023-05-07T01:31:24;5.03;;;3.30;;
3769;SDS011;1900;48.890;9.190;2023-05-07T01:33:53;7.50;;;4.33;;
3769;SDS011;1900;48.890;9.190;2023-05-07T01:36:22;5.27;;;3.03;;
3769;SDS011;1900;48.890;9.190;2023-05-07T01:38:51;4.53;;;3.20;;
3769;SDS011;1900;48.890;9.190;2023-05-07T01:41:19;7.23;;;3.53;;
3769;SDS011;1900;48.890;9.190;2023-05-07T01:43:46;3.00;;;2.77;;
3769;SDS011;1900;48.890;9.190;2023-05-07T01:46:12;3.80;;;3.40;;
3769;SDS011;1900;48.890;9.190;2023-05-07T01:48:39;6.23;;;3.37;;
3769;SDS011;1900;48.890;9.190;2023-05-07T01:51:05;4.47;;;3.37;;
3769;SDS011;1900;48.890;9.190;2023-05-07T01:53:39;4.27;;;2.97;;
3769;SDS011;1900;48.890;9.190;2023-05-07T01:56:06;3.80;;;3.40;;
3769;SDS011;1900;48.890;9.190;2023-05-07T01:58:36;2.87;;;2.67;;
3769;SDS011;1900;48.890;9.190;2023-05-07T02:01:02;4.83;;;3.30;;
3769;SDS011;1900;48.890;9.190;2023-05-07T02:03:28;4.33;;;3.10;;
3769;SDS011;1900;48.890;9.190;2023-05-07T02:06:03;4.83;;;3.50;;
3769;SDS011;1900;48.890;9.190;2023-05-07T02:08:32;3.33;;;3.03;;
3769;SDS011;1900;48.890;9.190;2023-05-07T02:10:58;2.97;;;2.60;;
3769;SDS011;1900;48.890;9.190;2023-05-07T02:13:25;4.00;;;2.57;;
3769;SDS011;1900;48.890;9.190;2023-05-07T02:15:53;6.57;;;2.83;;
3769;SDS011;1900;48.890;9.190;2023-05-07T02:18:19;3.50;;;2.43;;
3769;SDS011;1900;48.890;9.190;2023-05-07T02:20:48;3.40;;;3.10;;
3769;SDS011;1900;48.890;9.190;2023-05-07T02:23:13;3.73;;;2.93;;
3769;SDS011;1900;48.890;9.190;2023-05-07T02:25:39;2.60;;;2.37;;
3769;SDS011;1900;48.890;9.190;2023-05-07T02:28:07;3.40;;;2.53;;
3769;SDS011;1900;48.890;9.190;2023-05-07T02:30:48;5.13;;;3.10;;
3769;SDS011;1900;48.890;9.190;2023-05-07T02:33:14;3.97;;;2.90;;
3769;SDS011;1900;48.890;9.190;2023-05-07T02:35:40;5.07;;;2.73;;
3769;SDS011;1900;48.890;9.190;2023-05-07T02:38:06;4.90;;;2.97;;
3769;SDS011;1900;48.890;9.190;2023-05-07T02:40:33;3.10;;;2.43;;
3769;SDS011;1900;48.890;9.190;2023-05-07T02:42:59;3.93;;;3.00;;
3769;SDS011;1900;48.890;9.190;2023-05-07T02:45:25;4.97;;;2.77;;
3769;SDS011;1900;48.890;9.190;2023-05-07T02:47:53;3.00;;;2.60;;
3769;SDS011;1900;48.890;9.190;2023-05-07T02:50:20;3.03;;;2.73;;
3769;SDS011;1900;48.890;9.190;2023-05-07T02:52:48;5.03;;;3.00;;
3769;SDS011;1900;48.890;9.190;2023-05-07T02:55:15;4.40;;;3.13;;
3769;SDS011;1900;48.890;9.190;2023-05-07T02:57:40;5.63;;;3.33;;
3769;SDS011;1900;48.890;9.190;2023-05-07T03:00:11;4.60;;;2.67;;
3769;SDS011;1900;48.890;9.190;2023-05-07T03:02:49;11.80;;;3.50;;
3769;SDS011;1900;48.890;9.190;2023-05-07T03:05:14;3.80;;;2.60;;
3769;SDS011;1900;48.890;9.190;2023-05-07T03:07:43;5.10;;;2.90;;
3769;SDS011;1900;48.890;9.190;2023-05-07T03:10:11;4.47;;;3.43;;
3769;SDS011;1900;48.890;9.190;2023-05-07T03:12:37;6.17;;;3.67;;
3769;SDS011;1900;48.890;9.190;2023-05-07T03:15:03;3.60;;;3.00;;
3769;SDS011;1900;48.890;9.190;2023-05-07T03:17:30;4.90;;;3.00;;
3769;SDS011;1900;48.890;9.190;2023-05-07T03:19:55;5.60;;;3.57;;
3769;SDS011;1900;48.890;9.190;2023-05-07T03:22:21;8.00;;;3.57;;
3769;SDS011;1900;48.890;9.190;2023-05-07T03:24:47;3.50;;;3.20;;
3769;SDS011;1900;48.890;9.190;2023-05-07T03:27:15;5.43;;;3.47;;
3769;SDS011;1900;48.890;9.190;2023-05-07T03:29:41;6.03;;;3.03;;
3769;SDS011;1900;48.890;9.190;2023-05-07T03:32:07;3.50;;;3.20;;
3769;SDS011;1900;48.890;9.190;2023-05-07T03:34:32;4.50;;;3.67;;
3769;SDS011;1900;48.890;9.190;2023-05-07T03:36:58;6.73;;;3.33;;
3769;SDS011;1900;48.890;9.190;2023-05-07T03:39:24;6.43;;;3.00;;
3769;SDS011;1900;48.890;9.190;2023-05-07T03:41:50;5.13;;;3.80;;
3769;SDS011;1900;48.890;9.190;2023-05-07T03:44:16;4.33;;;3.13;;
3769;SDS011;1900;48.890;9.190;2023-05-07T03:46:42;5.30;;;3.00;;
3769;SDS011;1900;48.890;9.190;2023-05-07T03:49:11;3.40;;;3.10;;
3769;SDS011;1900;48.890;9.190;2023-05-07T03:51:37;5.53;;;3.50;;
3769;SDS011;1900;48.890;9.190;2023-05-07T03:54:05;3.67;;;3.20;;
3769;SDS011;1900;48.890;9.190;2023-05-07T03:56:32;4.93;;;3.40;;
3769;SDS011;1900;48.890;9.190;2023-05-07T03:59:00;4.90;;;3.30;;
3769;SDS011;1900;48.890;9.190;2023-05-07T04:01:26;5.13;;;3.30;;
3769;SDS011;1900;48.890;9.190;2023-05-07T04:03:54;3.10;;;2.80;;
3769;SDS011;1900;48.890;9.190;2023-05-07T04:06:20;3.20;;;2.90;;
3769;SDS011;1900;48.890;9.190;2023-05-07T04:08:47;3.40;;;3.10;;
3769;SDS011;1900;48.890;9.190;2023-05-07T04:11:13;4.30;;;2.90;;
3769;SDS011;1900;48.890;9.190;2023-05-07T04:13:39;4.43;;;3.03;;
3769;SDS011;1900;48.890;9.190;2023-05-07T04:16:07;5.90;;;2.70;;
3769;SDS011;1900;48.890;9.190;2023-05-07T04:18:35;4.90;;;2.90;;
3769;SDS011;1900;48.890;9.190;2023-05-07T04:21:01;5.20;;;3.20;;
3769;SDS011;1900;48.890;9.190;2023-05-07T04:23:26;5.60;;;3.10;;
3769;SDS011;1900;48.890;9.190;2023-05-07T04:25:53;3.60;;;3.20;;
3769;SDS011;1900;48.890;9.190;2023-05-07T04:28:39;4.43;;;3.03;;
3769;SDS011;1900;48.890;9.190;2023-05-07T04:31:06;4.87;;;3.17;;
3769;SDS011;1900;48.890;9.190;2023-05-07T04:33:34;3.30;;;2.73;;
3769;SDS011;1900;48.890;9.190;2023-05-07T04:36:03;5.43;;;3.00;;
3769;SDS011;1900;48.890;9.190;2023-05-07T04:38:33;8.30;;;3.17;;
3769;SDS011;1900;48.890;9.190;2023-05-07T04:41:05;3.20;;;2.90;;
3769;SDS011;1900;48.890;9.190;2023-05-07T04:43:34;2.63;;;2.43;;
3769;SDS011;1900;48.890;9.190;2023-05-07T04:46:00;3.10;;;2.80;;
3769;SDS011;1900;48.890;9.190;2023-05-07T04:48:26;5.23;;;3.10;;
3769;SDS011;1900;48.890;9.190;2023-05-07T04:50:53;5.67;;;2.70;;
3769;SDS011;1900;48.890;9.190;2023-05-07T04:53:23;5.63;;;3.10;;
3769;SDS011;1900;48.890;9.190;2023-05-07T04:55:54;3.40;;;3.10;;
3769;SDS011;1900;48.890;9.190;2023-05-07T04:58:22;7.40;;;2.80;;
3769;SDS011;1900;48.890;9.190;2023-05-07T05:00:49;3.70;;;2.77;;
3769;SDS011;1900;48.890;9.190;2023-05-07T05:03:14;4.77;;;2.80;;
3769;SDS011;1900;48.890;9.190;2023-05-07T05:05:40;12.23;;;3.00;;
3769;SDS011;1900;48.890;9.190;2023-05-07T05:08:06;2.83;;;2.57;;
3769;SDS011;1900;48.890;9.190;2023-05-07T05:10:35;3.07;;;2.57;;
3769;SDS011;1900;48.890;9.190;2023-05-07T05:13:00;3.50;;;2.50;;
3769;SDS011;1900;48.890;9.190;2023-05-07T05:15:26;4.27;;;2.40;;
3769;SDS011;1900;48.890;9.190;2023-05-07T05:17:52;4.13;;;2.77;;
3769;SDS011;1900;48.890;9.190;2023-05-07T05:20:18;2.80;;;2.57;;
3769;SDS011;1900;48.890;9.190;2023-05-07T05:22:44;3.73;;;2.80;;
3769;SDS011;1900;48.890;9.190;2023-05-07T05:25:12;6.90;;;2.87;;
3769;SDS011;1900;48.890;9.190;2023-05-07T05:27:38;5.40;;;2.80;;
3769;SDS011;1900;48.890;9.190;2023-05-07T05:30:04;3.60;;;2.43;;
3769;SDS011;1900;48.890;9.190;2023-05-07T05:32:31;3.43;;;2.47;;
3769;SDS011;1900;48.890;9.190;2023-05-07T05:34:58;5.87;;;2.90;;
3769;SDS011;1900;48.890;9.190;2023-05-07T05:37:24;3.93;;;2.60;;
3769;SDS011;1900;48.890;9.190;2023-05-07T05:39:50;2.90;;;2.43;;
3769;SDS011;1900;48.890;9.190;2023-05-07T05:42:17;6.40;;;2.57;;
3769;SDS011;1900;48.890;9.190;2023-05-07T05:44:42;4.37;;;2.60;;
3769;SDS011;1900;48.890;9.190;2023-05-07T05:47:08;6.83;;;3.20;;
3769;SDS011;1900;48.890;9.190;2023-05-07T05:49:34;4.90;;;3.20;;
3769;SDS011;1900;48.890;9.190;2023-05-07T05:52:02;3.43;;;2.80;;
3769;SDS011;1900;48.890;9.190;2023-05-07T05:54:28;6.93;;;2.20;;
3769;SDS011;1900;48.890;9.190;2023-05-07T05:56:54;3.60;;;2.90;;
3769;SDS011;1900;48.890;9.190;2023-05-07T05:59:24;5.40;;;3.00;;
3769;SDS011;1900;48.890;9.190;2023-05-07T06:01:51;3.17;;;2.87;;
3769;SDS011;1900;48.890;9.190;2023-05-07T06:04:20;5.40;;;2.70;;
3769;SDS011;1900;48.890;9.190;2023-05-07T06:06:46;6.23;;;2.90;;
3769;SDS011;1900;48.890;9.190;2023-05-07T06:09:12;5.53;;;2.70;;
3769;SDS011;1900;48.890;9.190;2023-05-07T06:11:41;3.07;;;2.63;;
3769;SDS011;1900;48.890;9.190;2023-05-07T06:14:08;2.83;;;2.53;;
3769;SDS011;1900;48.890;9.190;2023-05-07T06:16:34;2.43;;;2.23;;
3769;SDS011;1900;48.890;9.190;2023-05-07T06:19:01;4.73;;;3.10;;
3769;SDS011;1900;48.890;9.190;2023-05-07T06:21:27;3.87;;;2.70;;
3769;SDS011;1900;48.890;9.190;2023-05-07T06:23:53;7.33;;;2.87;;
3769;SDS011;1900;48.890;9.190;2023-05-07T06:26:20;2.80;;;2.60;;
3769;SDS011;1900;48.890;9.190;2023-05-07T06:28:46;5.10;;;3.17;;
3769;SDS011;1900;48.890;9.190;2023-05-07T06:31:17;5.30;;;2.83;;
3769;SDS011;1900;48.890;9.190;2023-05-07T06:33:54;3.50;;;2.63;;
3769;SDS011;1900;48.890;9.190;2023-05-07T06:36:21;6.17;;;2.53;;
3769;SDS011;1900;48.890;9.190;2023-05-07T06:38:47;4.53;;;2.30;;
3769;SDS011;1900;48.890;9.190;2023-05-07T06:41:14;3.20;;;2.20;;
3769;SDS011;1900;48.890;9.190;2023-05-07T06:43:42;3.20;;;2.30;;
3769;SDS011;1900;48.890;9.190;2023-05-07T06:46:24;3.57;;;2.87;;
3769;SDS011;1900;48.890;9.190;2023-05-07T06:48:52;5.50;;;2.90;;
3769;SDS011;1900;48.890;9.190;2023-05-07T06:51:21;3.33;;;2.47;;
3769;SDS011;1900;48.890;9.190;2023-05-07T06:53:49;2.23;;;1.93;;
3769;SDS011;1900;48.890;9.190;2023-05-07T06:56:14;3.83;;;2.47;;
3769;SDS011;1900;48.890;9.190;2023-05-07T06:58:40;3.17;;;2.27;;
3769;SDS011;1900;48.890;9.190;2023-05-07T07:01:07;8.73;;;2.97;;
3769;SDS011;1900;48.890;9.190;2023-05-07T07:03:34;2.53;;;2.20;;
3769;SDS011;1900;48.890;9.190;2023-05-07T07:05:59;3.93;;;2.07;;
3769;SDS011;1900;48.890;9.190;2023-05-07T07:08:28;3.00;;;2.70;;
3769;SDS011;1900;48.890;9.190;2023-05-07T07:10:54;3.40;;;3.10;;
3769;SDS011;1900;48.890;9.190;2023-05-07T07:13:19;5.10;;;2.60;;
3769;SDS011;1900;48.890;9.190;2023-05-07T07:15:45;3.80;;;2.77;;
3769;SDS011;1900;48.890;9.190;2023-05-07T07:18:11;4.47;;;2.70;;
3769;SDS011;1900;48.890;9.190;2023-05-07T07:20:38;6.00;;;2.90;;
3769;SDS011;1900;48.890;9.190;2023-05-07T07:23:06;7.70;;;3.70;;
3769;SDS011;1900;48.890;9.190;2023-05-07T07:25:32;4.70;;;3.10;;
3769;SDS011;1900;48.890;9.190;2023-05-07T07:27:57;5.00;;;3.00;;
3769;SDS011;1900;48.890;9.190;2023-05-07T07:30:26;3.60;;;3.13;;
3769;SDS011;1900;48.890;9.190;2023-05-07T07:32:52;3.70;;;3.13;;
3769;SDS011;1900;48.890;9.190;2023-05-07T07:35:18;5.17;;;3.07;;
3769;SDS011;1900;48.890;9.190;2023-05-07T07:37:45;4.83;;;3.13;;
3769;SDS011;1900;48.890;9.190;2023-05-07T07:40:13;3.40;;;2.67;;
3769;SDS011;1900;48.890;9.190;2023-05-07T07:42:39;5.17;;;2.80;;
3769;SDS011;1900;48.890;9.190;2023-05-07T07:45:08;5.23;;;3.17;;
3769;SDS011;1900;48.890;9.190;2023-05-07T07:47:38;5.03;;;3.20;;
3769;SDS011;1900;48.890;9.190;2023-05-07T07:50:06;3.97;;;2.80;;
3769;SDS011;1900;48.890;9.190;2023-05-07T07:52:35;5.63;;;2.90;;
3769;SDS011;1900;48.890;9.190;2023-05-07T07:55:01;6.27;;;2.77;;
3769;SDS011;1900;48.890;9.190;2023-05-07T07:57:27;4.90;;;4.03;;
3769;SDS011;1900;48.890;9.190;2023-05-07T07:59:56;4.03;;;2.80;;
3769;SDS011;1900;48.890;9.190;2023-05-07T08:02:24;3.23;;;2.80;;
3769;SDS011;1900;48.890;9.190;2023-05-07T08:04:50;4.00;;;2.93;;
3769;SDS011;1900;48.890;9.190;2023-05-07T08:07:16;6.07;;;2.90;;
3769;SDS011;1900;48.890;9.190;2023-05-07T08:09:46;3.10;;;2.77;;
3769;SDS011;1900;48.890;9.190;2023-05-07T08:12:16;3.50;;;3.10;;
3769;SDS011;1900;48.890;9.190;2023-05-07T08:14:41;7.00;;;3.13;;
3769;SDS011;1900;48.890;9.190;2023-05-07T08:17:08;5.13;;;2.17;;
3769;SDS011;1900;48.890;9.190;2023-05-07T08:19:36;3.20;;;2.90;;
3769;SDS011;1900;48.890;9.190;2023-05-07T08:22:04;3.77;;;3.10;;
3769;SDS011;1900;48.890;9.190;2023-05-07T08:24:32;3.57;;;3.10;;
3769;SDS011;1900;48.890;9.190;2023-05-07T08:26:58;3.80;;;3.10;;
3769;SDS011;1900;48.890;9.190;2023-05-07T08:29:24;2.90;;;2.70;;
3769;SDS011;1900;48.890;9.190;2023-05-07T08:31:51;3.80;;;3.37;;
3769;SDS011;1900;48.890;9.190;2023-05-07T08:34:17;3.90;;;2.90;;
3769;SDS011;1900;48.890;9.190;2023-05-07T08:36:45;3.10;;;2.80;;
3769;SDS011;1900;48.890;9.190;2023-05-07T08:39:15;3.80;;;2.73;;
3769;SDS011;1900;48.890;9.190;2023-05-07T08:41:44;3.77;;;2.80;;
3769;SDS011;1900;48.890;9.190;2023-05-07T08:44:11;3.30;;;2.70;;
3769;SDS011;1900;48.890;9.190;2023-05-07T08:46:39;10.60;;;5.70;;
3769;SDS011;1900;48.890;9.190;2023-05-07T08:49:07;3.40;;;3.10;;
3769;SDS011;1900;48.890;9.190;2023-05-07T08:51:33;4.87;;;3.57;;
3769;SDS011;1900;48.890;9.190;2023-05-07T08:54:00;6.87;;;3.30;;
3769;SDS011;1900;48.890;9.190;2023-05-07T08:56:30;3.73;;;2.50;;
3769;SDS011;1900;48.890;9.190;2023-05-07T08:58:59;6.03;;;2.90;;
3769;SDS011;1900;48.890;9.190;2023-05-07T09:01:26;7.90;;;3.20;;
3769;SDS011;1900;48.890;9.190;2023-05-07T09:03:53;10.03;;;3.07;;
3769;SDS011;1900;48.890;9.190;2023-05-07T09:06:21;3.93;;;3.37;;
3769;SDS011;1900;48.890;9.190;2023-05-07T09:08:51;3.50;;;3.07;;
3769;SDS011;1900;48.890;9.190;2023-05-07T09:11:20;7.70;;;2.70;;
3769;SDS011;1900;48.890;9.190;2023-05-07T09:13:55;5.70;;;3.30;;
3769;SDS011;1900;48.890;9.190;2023-05-07T09:16:25;3.80;;;3.30;;
3769;SDS011;1900;48.890;9.190;2023-05-07T09:18:52;6.17;;;3.60;;
3769;SDS011;1900;48.890;9.190;2023-05-07T09:21:20;5.10;;;3.30;;
3769;SDS011;1900;48.890;9.190;2023-05-07T09:23:52;3.37;;;3.07;;
3769;SDS011;1900;48.890;9.190;2023-05-07T09:26:26;5.43;;;3.00;;
3769;SDS011;1900;48.890;9.190;2023-05-07T09:28:53;5.37;;;2.93;;
3769;SDS011;1900;48.890;9.190;2023-05-07T09:31:19;9.27;;;2.40;;
3769;SDS011;1900;48.890;9.190;2023-05-07T09:33:48;5.87;;;3.40;;
3769;SDS011;1900;48.890;9.190;2023-05-07T09:36:14;7.43;;;3.10;;
3769;SDS011;1900;48.890;9.190;2023-05-07T09:38:40;4.20;;;2.27;;
3769;SDS011;1900;48.890;9.190;2023-05-07T09:41:12;7.87;;;3.00;;
3769;SDS011;1900;48.890;9.190;2023-05-07T09:44:01;8.70;;;3.50;;
3769;SDS011;1900;48.890;9.190;2023-05-07T09:46:34;5.00;;;3.00;;
3769;SDS011;1900;48.890;9.190;2023-05-07T09:49:06;4.00;;;3.60;;
3769;SDS011;1900;48.890;9.190;2023-05-07T09:54:06;6.73;;;3.10;;
3769;SDS011;1900;48.890;9.190;2023-05-07T09:56:35;4.87;;;2.90;;
3769;SDS011;1900;48.890;9.190;2023-05-07T09:59:03;5.73;;;2.70;;
3769;SDS011;1900;48.890;9.190;2023-05-07T10:01:32;6.03;;;3.70;;
3769;SDS011;1900;48.890;9.190;2023-05-07T10:04:01;4.37;;;2.90;;
3769;SDS011;1900;48.890;9.190;2023-05-07T10:06:29;4.27;;;3.00;;
3769;SDS011;1900;48.890;9.190;2023-05-07T10:08:56;3.57;;;3.00;;
3769;SDS011;1900;48.890;9.190;2023-05-07T10:11:22;6.10;;;2.77;;
3769;SDS011;1900;48.890;9.190;2023-05-07T10:13:48;3.80;;;2.70;;
3769;SDS011;1900;48.890;9.190;2023-05-07T10:16:16;3.70;;;2.60;;
3769;SDS011;1900;48.890;9.190;2023-05-07T10:18:45;5.13;;;2.93;;
3769;SDS011;1900;48.890;9.190;2023-05-07T10:21:18;3.63;;;2.47;;
3769;SDS011;1900;48.890;9.190;2023-05-07T10:23:58;3.23;;;2.70;;
3769;SDS011;1900;48.890;9.190;2023-05-07T10:26:40;3.27;;;2.80;;
3769;SDS011;1900;48.890;9.190;2023-05-07T10:29:15;4.53;;;2.87;;
3769;SDS011;1900;48.890;9.190;2023-05-07T10:34:43;4.10;;;3.00;;
3769;SDS011;1900;48.890;9.190;2023-05-07T10:37:12;4.30;;;2.30;;
3769;SDS011;1900;48.890;9.190;2023-05-07T10:39:38;3.20;;;2.40;;
3769;SDS011;1900;48.890;9.190;2023-05-07T10:42:09;2.27;;;2.03;;
3769;SDS011;1900;48.890;9.190;2023-05-07T10:44:43;3.60;;;2.70;;
3769;SDS011;1900;48.890;9.190;2023-05-07T10:47:16;3.23;;;2.93;;
3769;SDS011;1900;48.890;9.190;2023-05-07T10:52:20;2.93;;;2.67;;
3769;SDS011;1900;48.890;9.190;2023-05-07T10:57:49;3.00;;;2.50;;
3769;SDS011;1900;48.890;9.190;2023-05-07T11:05:28;4.10;;;2.60;;
3769;SDS011;1900;48.890;9.190;2023-05-07T11:08:10;2.73;;;2.53;;
3769;SDS011;1900;48.890;9.190;2023-05-07T11:10:52;5.43;;;3.00;;
3769;SDS011;1900;48.890;9.190;2023-05-07T11:13:41;3.50;;;3.20;;
3769;SDS011;1900;48.890;9.190;2023-05-07T11:16:23;3.80;;;2.23;;
3769;SDS011;1900;48.890;9.190;2023-05-07T11:18:58;4.17;;;2.57;;
3769;SDS011;1900;48.890;9.190;2023-05-07T11:21:37;2.73;;;2.33;;
3769;SDS011;1900;48.890;9.190;2023-05-07T11:24:14;3.93;;;2.37;;
3769;SDS011;1900;48.890;9.190;2023-05-07T11:26:52;3.37;;;2.30;;
3769;SDS011;1900;48.890;9.190;2023-05-07T11:29:23;3.50;;;2.60;;
3769;SDS011;1900;48.890;9.190;2023-05-07T11:31:54;7.23;;;2.33;;
3769;SDS011;1900;48.890;9.190;2023-05-07T11:34:23;4.67;;;2.50;;
3769;SDS011;1900;48.890;9.190;2023-05-07T11:36:55;2.70;;;2.40;;
3769;SDS011;1900;48.890;9.190;2023-05-07T11:39:31;3.30;;;2.23;;
3769;SDS011;1900;48.890;9.190;2023-05-07T11:42:01;2.97;;;2.40;;
3769;SDS011;1900;48.890;9.190;2023-05-07T11:44:45;2.77;;;2.40;;
3769;SDS011;1900;48.890;9.190;2023-05-07T11:47:16;4.67;;;2.20;;
3769;SDS011;1900;48.890;9.190;2023-05-07T11:49:43;6.90;;;2.40;;
3769;SDS011;1900;48.890;9.190;2023-05-07T11:52:12;3.73;;;2.30;;
3769;SDS011;1900;48.890;9.190;2023-05-07T11:54:38;9.20;;;2.17;;
3769;SDS011;1900;48.890;9.190;2023-05-07T11:57:04;2.10;;;1.83;;
3769;SDS011;1900;48.890;9.190;2023-05-07T11:59:37;6.10;;;2.50;;
3769;SDS011;1900;48.890;9.190;2023-05-07T12:02:05;3.80;;;2.40;;
3769;SDS011;1900;48.890;9.190;2023-05-07T12:04:31;3.57;;;2.37;;
3769;SDS011;1900;48.890;9.190;2023-05-07T12:06:57;2.40;;;2.20;;
3769;SDS011;1900;48.890;9.190;2023-05-07T12:09:23;2.90;;;2.00;;
3769;SDS011;1900;48.890;9.190;2023-05-07T12:11:48;2.47;;;2.00;;
3769;SDS011;1900;48.890;9.190;2023-05-07T12:14:16;3.03;;;2.33;;
3769;SDS011;1900;48.890;9.190;2023-05-07T12:16:42;2.97;;;2.00;;
3769;SDS011;1900;48.890;9.190;2023-05-07T12:19:10;6.17;;;2.30;;
3769;SDS011;1900;48.890;9.190;2023-05-07T12:21:37;2.80;;;2.20;;
3769;SDS011;1900;48.890;9.190;2023-05-07T12:24:04;2.90;;;2.60;;
3769;SDS011;1900;48.890;9.190;2023-05-07T12:26:30;3.43;;;2.33;;
3769;SDS011;1900;48.890;9.190;2023-05-07T12:29:02;3.83;;;2.10;;
3769;SDS011;1900;48.890;9.190;2023-05-07T12:31:28;2.40;;;2.20;;
3769;SDS011;1900;48.890;9.190;2023-05-07T12:33:54;6.30;;;2.30;;
3769;SDS011;1900;48.890;9.190;2023-05-07T12:36:20;3.33;;;2.40;;
3769;SDS011;1900;48.890;9.190;2023-05-07T12:38:46;2.33;;;2.10;;
3769;SDS011;1900;48.890;9.190;2023-05-07T12:41:15;3.00;;;2.30;;
3769;SDS011;1900;48.890;9.190;2023-05-07T12:43:43;6.50;;;2.53;;
3769;SDS011;1900;48.890;9.190;2023-05-07T12:46:10;4.30;;;2.30;;
3769;SDS011;1900;48.890;9.190;2023-05-07T12:48:43;3.20;;;2.20;;
3769;SDS011;1900;48.890;9.190;2023-05-07T12:51:10;2.47;;;2.00;;
3769;SDS011;1900;48.890;9.190;2023-05-07T12:53:41;2.83;;;2.17;;
3769;SDS011;1900;48.890;9.190;2023-05-07T12:56:07;4.13;;;2.63;;
3769;SDS011;1900;48.890;9.190;2023-05-07T12:58:34;5.47;;;2.50;;
3769;SDS011;1900;48.890;9.190;2023-05-07T13:01:03;2.97;;;2.53;;
3769;SDS011;1900;48.890;9.190;2023-05-07T13:03:32;8.77;;;3.10;;
3769;SDS011;1900;48.890;9.190;2023-05-07T13:06:06;8.93;;;2.97;;
3769;SDS011;1900;48.890;9.190;2023-05-07T13:08:38;6.30;;;2.77;;
3769;SDS011;1900;48.890;9.190;2023-05-07T13:11:08;3.27;;;2.97;;
3769;SDS011;1900;48.890;9.190;2023-05-07T13:13:35;6.13;;;3.27;;
3769;SDS011;1900;48.890;9.190;2023-05-07T13:16:05;6.93;;;3.07;;
3769;SDS011;1900;48.890;9.190;2023-05-07T13:18:32;4.20;;;2.17;;
3769;SDS011;1900;48.890;9.190;2023-05-07T13:21:02;2.93;;;2.63;;
3769;SDS011;1900;48.890;9.190;2023-05-07T13:23:28;4.77;;;3.03;;
3769;SDS011;1900;48.890;9.190;2023-05-07T13:25:54;3.10;;;2.17;;
3769;SDS011;1900;48.890;9.190;2023-05-07T13:28:21;4.27;;;2.13;;
3769;SDS011;1900;48.890;9.190;2023-05-07T13:30:47;3.80;;;1.87;;
3769;SDS011;1900;48.890;9.190;2023-05-07T13:33:13;2.20;;;1.97;;
3769;SDS011;1900;48.890;9.190;2023-05-07T13:35:40;2.30;;;2.10;;
3769;SDS011;1900;48.890;9.190;2023-05-07T13:38:06;2.63;;;2.20;;
3769;SDS011;1900;48.890;9.190;2023-05-07T13:40:31;2.23;;;1.83;;
3769;SDS011;1900;48.890;9.190;2023-05-07T13:42:58;3.63;;;1.70;;
3769;SDS011;1900;48.890;9.190;2023-05-07T13:45:28;3.27;;;1.83;;
3769;SDS011;1900;48.890;9.190;2023-05-07T13:47:57;2.23;;;1.70;;
3769;SDS011;1900;48.890;9.190;2023-05-07T13:50:23;2.00;;;1.80;;
3769;SDS011;1900;48.890;9.190;2023-05-07T13:52:49;4.20;;;1.90;;
3769;SDS011;1900;48.890;9.190;2023-05-07T13:55:18;3.17;;;1.90;;
3769;SDS011;1900;48.890;9.190;2023-05-07T13:57:53;2.43;;;2.23;;
3769;SDS011;1900;48.890;9.190;2023-05-07T14:00:23;4.93;;;1.90;;
3769;SDS011;1900;48.890;9.190;2023-05-07T14:02:50;1.70;;;1.60;;
3769;SDS011;1900;48.890;9.190;2023-05-07T14:05:16;1.67;;;1.40;;
3769;SDS011;1900;48.890;9.190;2023-05-07T14:07:41;1.83;;;1.30;;
3769;SDS011;1900;48.890;9.190;2023-05-07T14:10:07;3.87;;;1.47;;
3769;SDS011;1900;48.890;9.190;2023-05-07T14:12:33;1.63;;;1.40;;
3769;SDS011;1900;48.890;9.190;2023-05-07T14:14:59;1.80;;;1.30;;
3769;SDS011;1900;48.890;9.190;2023-05-07T14:17:25;2.50;;;1.47;;
3769;SDS011;1900;48.890;9.190;2023-05-07T14:19:52;1.37;;;1.27;;
3769;SDS011;1900;48.890;9.190;2023-05-07T14:22:24;1.60;;;1.20;;
3769;SDS011;1900;48.890;9.190;2023-05-07T14:24:50;4.90;;;1.90;;
3769;SDS011;1900;48.890;9.190;2023-05-07T14:27:16;1.87;;;1.40;;
3769;SDS011;1900;48.890;9.190;2023-05-07T14:29:42;4.30;;;1.70;;
3769;SDS011;1900;48.890;9.190;2023-05-07T14:32:08;2.80;;;1.60;;
3769;SDS011;1900;48.890;9.190;2023-05-07T14:34:36;3.20;;;1.57;;
3769;SDS011;1900;48.890;9.190;2023-05-07T14:37:03;3.50;;;1.83;;
3769;SDS011;1900;48.890;9.190;2023-05-07T14:39:28;7.33;;;5.20;;
3769;SDS011;1900;48.890;9.190;2023-05-07T14:41:54;3.30;;;2.97;;
3769;SDS011;1900;48.890;9.190;2023-05-07T14:44:22;4.70;;;2.83;;
3769;SDS011;1900;48.890;9.190;2023-05-07T14:46:47;5.77;;;2.60;;
3769;SDS011;1900;48.890;9.190;2023-05-07T14:49:13;4.27;;;1.90;;
3769;SDS011;1900;48.890;9.190;2023-05-07T14:51:45;5.80;;;2.17;;
3769;SDS011;1900;48.890;9.190;2023-05-07T14:54:15;3.10;;;2.03;;
3769;SDS011;1900;48.890;9.190;2023-05-07T14:56:43;5.10;;;3.20;;
3769;SDS011;1900;48.890;9.190;2023-05-07T14:59:09;3.77;;;2.40;;
3769;SDS011;1900;48.890;9.190;2023-05-07T15:01:35;4.13;;;2.50;;
3769;SDS011;1900;48.890;9.190;2023-05-07T15:04:04;4.00;;;2.73;;
3769;SDS011;1900;48.890;9.190;2023-05-07T15:06:30;7.63;;;3.63;;
3769;SDS011;1900;48.890;9.190;2023-05-07T15:08:59;8.10;;;5.60;;
3769;SDS011;1900;48.890;9.190;2023-05-07T15:11:25;13.13;;;5.97;;
3769;SDS011;1900;48.890;9.190;2023-05-07T15:13:50;10.30;;;5.40;;
3769;SDS011;1900;48.890;9.190;2023-05-07T15:16:16;11.67;;;7.63;;
3769;SDS011;1900;48.890;9.190;2023-05-07T15:18:42;10.00;;;6.90;;
3769;SDS011;1900;48.890;9.190;2023-05-07T15:21:08;8.80;;;3.90;;
3769;SDS011;1900;48.890;9.190;2023-05-07T15:23:34;4.03;;;3.20;;
3769;SDS011;1900;48.890;9.190;2023-05-07T15:26:00;4.80;;;3.20;;
3769;SDS011;1900;48.890;9.190;2023-05-07T15:28:27;5.00;;;3.30;;
3769;SDS011;1900;48.890;9.190;2023-05-07T15:30:55;4.23;;;3.10;;
3769;SDS011;1900;48.890;9.190;2023-05-07T15:33:21;5.13;;;3.07;;
3769;SDS011;1900;48.890;9.190;2023-05-07T15:35:47;5.07;;;3.27;;